sensor_id;sensor_type;location;lat;lon;timestamp;pressure;altitude;pressure_sealevel;temperature;humidity
43701;BME280;58809;47.984;7.964;2022-11-20T00:02:15;96813.88;;;5.97;100.00
43701;BME280;58809;47.984;7.964;2022-11-20T00:05:16;96817.13;;;5.91;100.00
43701;BME280;58809;47.984;7.964;2022-11-20T00:08:18;96822.22;;;5.92;100.00
43701;BME280;58809;47.984;7.964;2022-11-20T00:11:22;96820.88;;;5.80;100.00
43701;BME280;58809;47.984;7.964;2022-11-20T00:14:24;96823.19;;;5.83;100.00
43701;BME280;58809;47.984;7.964;2022-11-20T00:17:25;96828.13;;;5.86;100.00
43701;BME280;58809;47.984;7.964;2022-11-20T00:20:27;96830.72;;;5.78;100.00
43701;BME280;58809;47.984;7.964;2022-11-20T00:23:29;96826.47;;;5.77;100.00
43701;BME280;58809;47.984;7.964;2022-11-20T00:26:31;96822.50;;;5.73;100.00
43701;BME280;58809;47.984;7.964;2022-11-20T00:29:32;96822.69;;;5.79;100.00
43701;BME280;58809;47.984;7.964;2022-11-20T00:32:34;96824.81;;;5.76;100.00
43701;BME280;58809;47.984;7.964;2022-11-20T00:35:36;96832.19;;;5.81;100.00
43701;BME280;58809;47.984;7.964;2022-11-20T00:38:37;96829.25;;;5.84;100.00
43701;BME280;58809;47.984;7.964;2022-11-20T00:41:39;96830.38;;;5.73;100.00
43701;BME280;58809;47.984;7.964;2022-11-20T00:44:40;96827.72;;;5.65;100.00
43701;BME280;58809;47.984;7.964;2022-11-20T00:47:42;96818.50;;;5.52;100.00
43701;BME280;58809;47.984;7.964;2022-11-20T00:50:43;96829.19;;;5.59;100.00
43701;BME280;58809;47.984;7.964;2022-11-20T00:53:46;96827.53;;;5.58;100.00
43701;BME280;58809;47.984;7.964;2022-11-20T00:56:47;96831.97;;;5.57;100.00
43701;BME280;58809;47.984;7.964;2022-11-20T00:59:49;96828.69;;;5.55;100.00
43701;BME280;58809;47.984;7.964;2022-11-20T01:02:51;96828.53;;;5.57;100.00
43701;BME280;58809;47.984;7.964;2022-11-20T01:05:52;96830.00;;;5.59;100.00
43701;BME280;58809;47.984;7.964;2022-11-20T01:08:56;96827.22;;;5.61;100.00
43701;BME280;58809;47.984;7.964;2022-11-20T01:11:59;96833.63;;;5.67;100.00
43701;BME280;58809;47.984;7.964;2022-11-20T01:15:01;96834.44;;;5.67;100.00
43701;BME280;58809;47.984;7.964;2022-11-20T01:18:03;96835.97;;;5.70;100.00
43701;BME280;58809;47.984;7.964;2022-11-20T01:21:07;96838.25;;;5.73;100.00
43701;BME280;58809;47.984;7.964;2022-11-20T01:24:12;96840.41;;;5.77;100.00
43701;BME280;58809;47.984;7.964;2022-11-20T01:27:14;96828.59;;;5.82;100.00
43701;BME280;58809;47.984;7.964;2022-11-20T01:30:16;96833.88;;;5.90;100.00
43701;BME280;58809;47.984;7.964;2022-11-20T01:33:17;96837.13;;;5.84;100.00
43701;BME280;58809;47.984;7.964;2022-11-20T01:36:20;96835.66;;;5.89;100.00
43701;BME280;58809;47.984;7.964;2022-11-20T01:39:24;96834.66;;;5.74;100.00
43701;BME280;58809;47.984;7.964;2022-11-20T01:42:26;96832.34;;;5.71;100.00
43701;BME280;58809;47.984;7.964;2022-11-20T01:46:17;96834.66;;;5.74;100.00
43701;BME280;58809;47.984;7.964;2022-11-20T01:49:23;96825.44;;;5.70;100.00
43701;BME280;58809;47.984;7.964;2022-11-20T01:52:34;96833.84;;;5.73;100.00
43701;BME280;58809;47.984;7.964;2022-11-20T01:55:58;96836.63;;;5.80;100.00
43701;BME280;58809;47.984;7.964;2022-11-20T01:59:04;96838.78;;;5.85;100.00
43701;BME280;58809;47.984;7.964;2022-11-20T02:02:06;96836.63;;;5.80;100.00
43701;BME280;58809;47.984;7.964;2022-11-20T02:05:17;96832.19;;;5.81;100.00
43701;BME280;58809;47.984;7.964;2022-11-20T02:08:21;96835.97;;;5.78;100.00
43701;BME280;58809;47.984;7.964;2022-11-20T02:11:23;96831.56;;;5.87;100.00
43701;BME280;58809;47.984;7.964;2022-11-20T02:14:25;96831.06;;;5.91;100.00
43701;BME280;58809;47.984;7.964;2022-11-20T02:17:27;96834.19;;;5.95;100.00
43701;BME280;58809;47.984;7.964;2022-11-20T02:20:29;96836.69;;;5.96;100.00
43701;BME280;58809;47.984;7.964;2022-11-20T02:23:56;96829.28;;;5.92;100.00
43701;BME280;58809;47.984;7.964;2022-11-20T02:27:02;96829.94;;;5.94;100.00
43701;BME280;58809;47.984;7.964;2022-11-20T02:30:06;96831.72;;;5.85;100.00
43701;BME280;58809;47.984;7.964;2022-11-20T02:33:12;96824.16;;;5.82;100.00
43701;BME280;58809;47.984;7.964;2022-11-20T02:36:15;96825.81;;;5.83;100.00
43701;BME280;58809;47.984;7.964;2022-11-20T02:39:19;96829.41;;;5.74;100.00
43701;BME280;58809;47.984;7.964;2022-11-20T02:42:22;96829.03;;;5.69;100.00
43701;BME280;58809;47.984;7.964;2022-11-20T02:45:24;96822.97;;;5.68;100.00
43701;BME280;58809;47.984;7.964;2022-11-20T02:48:26;96816.28;;;5.74;100.00
43701;BME280;58809;47.984;7.964;2022-11-20T02:51:34;96809.88;;;5.76;100.00
43701;BME280;58809;47.984;7.964;2022-11-20T02:54:35;96814.66;;;5.81;100.00
43701;BME280;58809;47.984;7.964;2022-11-20T02:57:37;96820.88;;;5.80;100.00
43701;BME280;58809;47.984;7.964;2022-11-20T03:00:40;96824.81;;;5.76;100.00
43701;BME280;58809;47.984;7.964;2022-11-20T03:03:42;96820.97;;;5.62;100.00
43701;BME280;58809;47.984;7.964;2022-11-20T03:06:44;96822.63;;;5.63;100.00
43701;BME280;58809;47.984;7.964;2022-11-20T03:09:45;96826.72;;;5.66;100.00
43701;BME280;58809;47.984;7.964;2022-11-20T03:12:47;96826.91;;;5.64;100.00
43701;BME280;58809;47.984;7.964;2022-11-20T03:15:48;96815.56;;;5.64;100.00
43701;BME280;58809;47.984;7.964;2022-11-20T03:18:51;96824.94;;;5.66;100.00
43701;BME280;58809;47.984;7.964;2022-11-20T03:21:53;96822.47;;;5.65;100.00
43701;BME280;58809;47.984;7.964;2022-11-20T03:24:55;96825.06;;;5.56;100.00
43701;BME280;58809;47.984;7.964;2022-11-20T03:27:56;96816.88;;;5.51;100.00
43701;BME280;58809;47.984;7.964;2022-11-20T03:30:58;96818.03;;;5.57;100.00
43701;BME280;58809;47.984;7.964;2022-11-20T03:34:00;96822.63;;;5.63;100.00
43701;BME280;58809;47.984;7.964;2022-11-20T03:37:02;96825.09;;;5.65;100.00
43701;BME280;58809;47.984;7.964;2022-11-20T03:40:04;96823.28;;;5.65;100.00
43701;BME280;58809;47.984;7.964;2022-11-20T03:43:06;96825.44;;;5.70;100.00
43701;BME280;58809;47.984;7.964;2022-11-20T03:46:08;96825.13;;;5.73;100.00
43701;BME280;58809;47.984;7.964;2022-11-20T03:49:09;96825.47;;;5.78;100.00
43701;BME280;58809;47.984;7.964;2022-11-20T03:52:11;96822.53;;;5.81;100.00
43701;BME280;58809;47.984;7.964;2022-11-20T03:55:12;96824.50;;;5.79;100.00
43701;BME280;58809;47.984;7.964;2022-11-20T03:58:14;96825.78;;;5.75;100.00
43701;BME280;58809;47.984;7.964;2022-11-20T04:01:21;96827.91;;;5.71;100.00
43701;BME280;58809;47.984;7.964;2022-11-20T04:04:23;96834.97;;;5.71;100.00
43701;BME280;58809;47.984;7.964;2022-11-20T04:07:24;96839.56;;;5.69;100.00
43701;BME280;58809;47.984;7.964;2022-11-20T04:10:26;96841.53;;;5.75;100.00
43701;BME280;58809;47.984;7.964;2022-11-20T04:13:27;96839.09;;;5.82;100.00
43701;BME280;58809;47.984;7.964;2022-11-20T04:16:31;96835.31;;;5.84;100.00
43701;BME280;58809;47.984;7.964;2022-11-20T04:19:33;96833.53;;;5.85;100.00
43701;BME280;58809;47.984;7.964;2022-11-20T04:22:34;96832.53;;;5.86;100.00
43701;BME280;58809;47.984;7.964;2022-11-20T04:25:36;96831.91;;;5.92;100.00
43701;BME280;58809;47.984;7.964;2022-11-20T04:28:38;96835.06;;;5.95;100.00
43701;BME280;58809;47.984;7.964;2022-11-20T04:31:40;96831.44;;;5.96;99.08
43701;BME280;58809;47.984;7.964;2022-11-20T04:34:41;96836.69;;;5.96;98.81
43701;BME280;58809;47.984;7.964;2022-11-20T04:37:43;96827.84;;;5.97;98.22
43701;BME280;58809;47.984;7.964;2022-11-20T04:40:44;96826.53;;;6.02;97.87
43701;BME280;58809;47.984;7.964;2022-11-20T04:43:51;96830.47;;;6.06;96.88
43701;BME280;58809;47.984;7.964;2022-11-20T04:46:53;96830.47;;;6.06;97.17
43701;BME280;58809;47.984;7.964;2022-11-20T04:49:54;96825.56;;;6.03;96.56
43701;BME280;58809;47.984;7.964;2022-11-20T04:52:56;96825.56;;;6.03;96.90
43701;BME280;58809;47.984;7.964;2022-11-20T04:56:01;96825.88;;;6.00;96.40
43701;BME280;58809;47.984;7.964;2022-11-20T04:59:03;96831.13;;;6.00;96.96
43701;BME280;58809;47.984;7.964;2022-11-20T05:02:04;96823.03;;;5.93;97.58
43701;BME280;58809;47.984;7.964;2022-11-20T05:05:06;96816.63;;;5.87;98.10
43701;BME280;58809;47.984;7.964;2022-11-20T05:08:08;96824.66;;;5.86;98.53
43701;BME280;58809;47.984;7.964;2022-11-20T05:11:13;96825.81;;;5.91;98.00
43701;BME280;58809;47.984;7.964;2022-11-20T05:14:14;96831.41;;;5.88;97.56
43701;BME280;58809;47.984;7.964;2022-11-20T05:17:16;96830.09;;;5.92;97.22
43701;BME280;58809;47.984;7.964;2022-11-20T05:20:18;96831.56;;;5.95;98.17
43701;BME280;58809;47.984;7.964;2022-11-20T05:23:20;96824.38;;;5.97;98.76
43701;BME280;58809;47.984;7.964;2022-11-20T05:26:22;96826.97;;;5.89;99.40
43701;BME280;58809;47.984;7.964;2022-11-20T05:29:24;96831.41;;;5.88;100.00
43701;BME280;58809;47.984;7.964;2022-11-20T05:32:26;96823.69;;;5.87;100.00
43701;BME280;58809;47.984;7.964;2022-11-20T05:35:27;96825.66;;;5.85;99.52
43701;BME280;58809;47.984;7.964;2022-11-20T05:38:29;96822.88;;;5.86;99.08
43701;BME280;58809;47.984;7.964;2022-11-20T05:41:30;96825.50;;;5.86;99.08
43701;BME280;58809;47.984;7.964;2022-11-20T05:44:37;96820.56;;;5.83;98.70
43701;BME280;58809;47.984;7.964;2022-11-20T05:47:42;96824.31;;;5.81;99.71
43701;BME280;58809;47.984;7.964;2022-11-20T05:50:44;96822.38;;;5.83;99.35
43701;BME280;58809;47.984;7.964;2022-11-20T05:53:45;96813.66;;;5.82;98.64
43701;BME280;58809;47.984;7.964;2022-11-20T05:56:49;96829.59;;;5.89;98.57
43701;BME280;58809;47.984;7.964;2022-11-20T05:59:50;96827.47;;;5.92;98.17
43701;BME280;58809;47.984;7.964;2022-11-20T06:02:52;96826.03;;;5.98;97.00
43701;BME280;58809;47.984;7.964;2022-11-20T06:05:54;96824.38;;;5.97;96.99
43701;BME280;58809;47.984;7.964;2022-11-20T06:08:55;96822.88;;;5.94;97.02
43701;BME280;58809;47.984;7.964;2022-11-20T06:11:57;96824.56;;;5.95;97.66
43701;BME280;58809;47.984;7.964;2022-11-20T06:14:59;96823.19;;;5.91;98.43
43701;BME280;58809;47.984;7.964;2022-11-20T06:18:01;96825.50;;;5.86;99.03
43701;BME280;58809;47.984;7.964;2022-11-20T06:21:07;96830.09;;;5.92;99.37
43701;BME280;58809;47.984;7.964;2022-11-20T06:24:10;96824.56;;;5.95;99.49
43701;BME280;58809;47.984;7.964;2022-11-20T06:27:12;96821.41;;;5.92;100.00
43701;BME280;58809;47.984;7.964;2022-11-20T06:30:13;96823.56;;;5.96;100.00
43701;BME280;58809;47.984;7.964;2022-11-20T06:33:15;96822.25;;;6.01;100.00
43701;BME280;58809;47.984;7.964;2022-11-20T06:36:19;96820.94;;;5.96;100.00
43701;BME280;58809;47.984;7.964;2022-11-20T06:39:20;96820.91;;;5.88;100.00
43701;BME280;58809;47.984;7.964;2022-11-20T06:42:22;96826.94;;;5.81;100.00
43701;BME280;58809;47.984;7.964;2022-11-20T06:45:24;96838.28;;;5.81;100.00
43701;BME280;58809;47.984;7.964;2022-11-20T06:48:27;96839.59;;;5.85;100.00
43701;BME280;58809;47.984;7.964;2022-11-20T06:51:29;96839.28;;;5.88;100.00
43701;BME280;58809;47.984;7.964;2022-11-20T06:54:31;96839.28;;;5.88;100.00
43701;BME280;58809;47.984;7.964;2022-11-20T06:57:32;96842.56;;;5.90;100.00
43701;BME280;58809;47.984;7.964;2022-11-20T07:00:34;96844.69;;;5.95;100.00
43701;BME280;58809;47.984;7.964;2022-11-20T07:03:36;96849.34;;;6.01;100.00
43701;BME280;58809;47.984;7.964;2022-11-20T07:06:38;96843.88;;;5.94;100.00
43701;BME280;58809;47.984;7.964;2022-11-20T07:09:40;96848.63;;;5.91;100.00
43701;BME280;58809;47.984;7.964;2022-11-20T07:12:41;96851.56;;;5.88;100.00
43701;BME280;58809;47.984;7.964;2022-11-20T07:15:43;96846.81;;;5.83;100.00
43701;BME280;58809;47.984;7.964;2022-11-20T07:18:44;96850.56;;;5.81;100.00
43701;BME280;58809;47.984;7.964;2022-11-20T07:21:51;96860.28;;;5.88;100.00
43701;BME280;58809;47.984;7.964;2022-11-20T07:24:52;96857.97;;;5.93;100.00
43701;BME280;58809;47.984;7.964;2022-11-20T07:27:58;96865.28;;;6.00;100.00
43701;BME280;58809;47.984;7.964;2022-11-20T07:31:01;96862.03;;;6.14;100.00
43701;BME280;58809;47.984;7.964;2022-11-20T07:34:03;96865.97;;;6.18;100.00
43701;BME280;58809;47.984;7.964;2022-11-20T07:37:04;96866.13;;;6.08;100.00
43701;BME280;58809;47.984;7.964;2022-11-20T07:40:12;96861.03;;;6.07;100.00
43701;BME280;58809;47.984;7.964;2022-11-20T07:43:13;96861.53;;;6.10;100.00
43701;BME280;58809;47.984;7.964;2022-11-20T07:46:16;96860.56;;;6.20;100.00
43701;BME280;58809;47.984;7.964;2022-11-20T07:49:17;96861.56;;;6.35;100.00
43701;BME280;58809;47.984;7.964;2022-11-20T07:52:19;96860.91;;;6.41;100.00
43701;BME280;58809;47.984;7.964;2022-11-20T07:55:21;96858.75;;;6.36;100.00
43701;BME280;58809;47.984;7.964;2022-11-20T07:58:22;96864.84;;;6.29;100.00
43701;BME280;58809;47.984;7.964;2022-11-20T08:01:24;96870.91;;;6.21;100.00
43701;BME280;58809;47.984;7.964;2022-11-20T08:04:26;96888.47;;;6.21;100.00
43701;BME280;58809;47.984;7.964;2022-11-20T08:07:27;96886.97;;;6.18;100.00
43701;BME280;58809;47.984;7.964;2022-11-20T08:10:29;96883.19;;;6.21;100.00
43701;BME280;58809;47.984;7.964;2022-11-20T08:13:30;96900.94;;;6.19;100.00
43701;BME280;58809;47.984;7.964;2022-11-20T08:16:50;96909.78;;;6.09;100.00
43701;BME280;58809;47.984;7.964;2022-11-20T08:19:52;96910.44;;;6.03;100.00
43701;BME280;58809;47.984;7.964;2022-11-20T08:23:02;96907.88;;;5.93;100.00
43701;BME280;58809;47.984;7.964;2022-11-20T08:26:04;96911.97;;;5.88;100.00
43701;BME280;58809;47.984;7.964;2022-11-20T08:29:09;96912.47;;;5.83;100.00
43701;BME280;58809;47.984;7.964;2022-11-20T08:32:25;96914.78;;;5.86;100.00
43701;BME280;58809;47.984;7.964;2022-11-20T08:35:26;96917.72;;;5.91;100.00
43701;BME280;58809;47.984;7.964;2022-11-20T08:38:29;96908.22;;;5.90;100.00
43701;BME280;58809;47.984;7.964;2022-11-20T08:41:31;96922.97;;;5.91;100.00
43701;BME280;58809;47.984;7.964;2022-11-20T08:44:34;96918.88;;;5.89;100.00
43701;BME280;58809;47.984;7.964;2022-11-20T08:47:36;96925.28;;;5.94;100.00
43701;BME280;58809;47.984;7.964;2022-11-20T08:50:37;96928.97;;;6.02;100.00
43701;BME280;58809;47.984;7.964;2022-11-20T08:53:39;96928.00;;;6.11;100.00
43701;BME280;58809;47.984;7.964;2022-11-20T08:56:41;96931.00;;;6.16;100.00
43701;BME280;58809;47.984;7.964;2022-11-20T08:59:42;96931.34;;;6.29;100.00
43701;BME280;58809;47.984;7.964;2022-11-20T09:03:04;96935.13;;;6.35;100.00
43701;BME280;58809;47.984;7.964;2022-11-20T09:06:07;96931.03;;;6.41;100.00
43701;BME280;58809;47.984;7.964;2022-11-20T09:09:09;96937.94;;;6.50;100.00
43701;BME280;58809;47.984;7.964;2022-11-20T09:12:13;96937.94;;;6.42;100.00
43701;BME280;58809;47.984;7.964;2022-11-20T09:15:22;96944.00;;;6.34;100.00
43701;BME280;58809;47.984;7.964;2022-11-20T09:18:24;96943.81;;;6.27;100.00
43701;BME280;58809;47.984;7.964;2022-11-20T09:21:26;96943.16;;;6.33;100.00
43701;BME280;58809;47.984;7.964;2022-11-20T09:24:28;96946.31;;;6.37;100.00
43701;BME280;58809;47.984;7.964;2022-11-20T09:27:29;96954.84;;;6.31;100.00
43701;BME280;58809;47.984;7.964;2022-11-20T09:30:31;96962.69;;;6.23;100.00
43701;BME280;58809;47.984;7.964;2022-11-20T09:33:32;96965.66;;;6.20;100.00
43701;BME280;58809;47.984;7.964;2022-11-20T09:36:34;96966.97;;;6.24;100.00
43701;BME280;58809;47.984;7.964;2022-11-20T09:39:36;96959.59;;;6.27;100.00
43701;BME280;58809;47.984;7.964;2022-11-20T09:42:45;96958.28;;;6.31;100.00
43701;BME280;58809;47.984;7.964;2022-11-20T09:56:08;96960.78;;;6.49;100.00
43701;BME280;58809;47.984;7.964;2022-11-20T10:02:48;96961.28;;;6.61;100.00
43701;BME280;58809;47.984;7.964;2022-11-20T10:05:54;96963.13;;;6.77;100.00
43701;BME280;58809;47.984;7.964;2022-11-20T10:19:21;96970.22;;;6.93;100.00
43701;BME280;58809;47.984;7.964;2022-11-20T10:25:47;96954.44;;;7.26;100.00
43701;BME280;58809;47.984;7.964;2022-11-20T10:29:14;96950.16;;;7.33;100.00
43701;BME280;58809;47.984;7.964;2022-11-20T10:32:20;96949.16;;;7.26;99.25
43701;BME280;58809;47.984;7.964;2022-11-20T10:35:42;96950.50;;;6.97;100.00
43701;BME280;58809;47.984;7.964;2022-11-20T10:38:49;96941.28;;;6.85;100.00
43701;BME280;58809;47.984;7.964;2022-11-20T10:41:52;96949.16;;;6.77;100.00
43701;BME280;58809;47.984;7.964;2022-11-20T10:45:02;96943.06;;;6.68;100.00
43701;BME280;58809;47.984;7.964;2022-11-20T10:48:20;96945.41;;;6.87;100.00
43701;BME280;58809;47.984;7.964;2022-11-20T10:51:45;96940.13;;;6.87;97.97
43701;BME280;58809;47.984;7.964;2022-11-20T11:02:18;96935.19;;;7.01;94.42
43701;BME280;58809;47.984;7.964;2022-11-20T11:05:39;96925.50;;;7.01;94.14
43701;BME280;58809;47.984;7.964;2022-11-20T11:08:43;96916.63;;;7.02;93.93
43701;BME280;58809;47.984;7.964;2022-11-20T11:11:45;96923.34;;;7.05;92.72
43701;BME280;58809;47.984;7.964;2022-11-20T11:14:49;96919.91;;;7.04;92.83
43701;BME280;58809;47.984;7.964;2022-11-20T11:17:51;96918.59;;;7.00;92.19
43701;BME280;58809;47.984;7.964;2022-11-20T11:20:54;96905.75;;;7.13;91.60
43701;BME280;58809;47.984;7.964;2022-11-20T11:24:00;96886.97;;;7.33;89.41
43701;BME280;58809;47.984;7.964;2022-11-20T11:27:22;96897.91;;;7.69;88.18
43701;BME280;58809;47.984;7.964;2022-11-20T11:30:26;96885.09;;;7.98;85.13
43701;BME280;58809;47.984;7.964;2022-11-20T11:33:31;96879.50;;;8.24;83.31
43701;BME280;58809;47.984;7.964;2022-11-20T11:36:35;96865.66;;;8.53;82.23
43701;BME280;58809;47.984;7.964;2022-11-20T11:39:41;96870.75;;;8.78;80.95
43701;BME280;58809;47.984;7.964;2022-11-20T11:42:44;96871.44;;;8.95;79.42
43701;BME280;58809;47.984;7.964;2022-11-20T11:45:53;96857.63;;;9.08;77.36
43701;BME280;58809;47.984;7.964;2022-11-20T11:48:57;96848.78;;;9.00;75.45
43701;BME280;58809;47.984;7.964;2022-11-20T11:52:21;96844.88;;;8.96;72.51
43701;BME280;58809;47.984;7.964;2022-11-20T11:58:58;96846.13;;;9.00;74.38
43701;BME280;58809;47.984;7.964;2022-11-20T12:02:03;96835.38;;;8.87;72.73
43701;BME280;58809;47.984;7.964;2022-11-20T12:05:26;96831.66;;;8.81;72.56
43701;BME280;58809;47.984;7.964;2022-11-20T12:08:52;96828.72;;;8.76;72.58
43701;BME280;58809;47.984;7.964;2022-11-20T12:12:07;96832.66;;;9.10;72.31
43701;BME280;58809;47.984;7.964;2022-11-20T12:15:15;96819.56;;;9.47;71.10
43701;BME280;58809;47.984;7.964;2022-11-20T12:18:19;96824.19;;;9.59;70.51
43701;BME280;58809;47.984;7.964;2022-11-20T12:22:00;96821.53;;;9.74;68.09
43701;BME280;58809;47.984;7.964;2022-11-20T12:25:12;96831.72;;;9.92;68.49
43701;BME280;58809;47.984;7.964;2022-11-20T12:53:04;96821.28;;;8.34;73.68
43701;BME280;58809;47.984;7.964;2022-11-20T12:59:39;96838.50;;;8.21;73.75
43701;BME280;58809;47.984;7.964;2022-11-20T13:06:16;96827.09;;;8.29;74.68
43701;BME280;58809;47.984;7.964;2022-11-20T13:09:20;96825.56;;;8.35;74.23
43701;BME280;58809;47.984;7.964;2022-11-20T13:12:36;96814.38;;;8.33;74.35
43701;BME280;58809;47.984;7.964;2022-11-20T13:15:50;96817.03;;;8.56;74.21
43701;BME280;58809;47.984;7.964;2022-11-20T13:18:53;96808.06;;;8.42;74.59
43701;BME280;58809;47.984;7.964;2022-11-20T13:21:55;96806.16;;;8.27;74.79
43701;BME280;58809;47.984;7.964;2022-11-20T13:24:56;96795.53;;;8.44;74.68
43701;BME280;58809;47.984;7.964;2022-11-20T13:28:00;96790.06;;;8.83;74.33
43701;BME280;58809;47.984;7.964;2022-11-20T13:31:02;96790.66;;;9.09;73.09
43701;BME280;58809;47.984;7.964;2022-11-20T13:34:05;96787.09;;;9.31;72.22
43701;BME280;58809;47.984;7.964;2022-11-20T13:40:37;96780.94;;;9.97;70.57
43701;BME280;58809;47.984;7.964;2022-11-20T13:43:41;96776.16;;;9.86;68.79
43701;BME280;58809;47.984;7.964;2022-11-20T13:46:45;96779.06;;;9.39;69.18
43701;BME280;58809;47.984;7.964;2022-11-20T13:49:47;96776.88;;;9.13;70.67
43701;BME280;58809;47.984;7.964;2022-11-20T13:52:55;96786.19;;;8.94;71.29
43701;BME280;58809;47.984;7.964;2022-11-20T13:56:33;96778.88;;;8.81;69.25
43701;BME280;58809;47.984;7.964;2022-11-20T14:06:27;96775.50;;;9.17;67.28
43701;BME280;58809;47.984;7.964;2022-11-20T14:09:33;96763.16;;;9.18;66.31
43701;BME280;58809;47.984;7.964;2022-11-20T14:12:45;96763.25;;;8.95;67.12
43701;BME280;58809;47.984;7.964;2022-11-20T14:15:47;96764.31;;;8.71;67.75
43701;BME280;58809;47.984;7.964;2022-11-20T14:18:49;96751.47;;;8.67;67.71
43701;BME280;58809;47.984;7.964;2022-11-20T14:22:09;96750.38;;;8.39;68.69
43701;BME280;58809;47.984;7.964;2022-11-20T14:28:30;96751.31;;;8.08;69.91
43701;BME280;58809;47.984;7.964;2022-11-20T14:31:32;96739.94;;;8.07;70.94
43701;BME280;58809;47.984;7.964;2022-11-20T14:34:39;96737.59;;;8.13;70.55
43701;BME280;58809;47.984;7.964;2022-11-20T14:37:41;96731.75;;;8.02;71.11
43701;BME280;58809;47.984;7.964;2022-11-20T14:40:44;96710.84;;;8.01;71.18
43701;BME280;58809;47.984;7.964;2022-11-20T14:44:01;96695.25;;;7.91;71.33
43701;BME280;58809;47.984;7.964;2022-11-20T14:47:04;96699.44;;;7.85;71.59
43701;BME280;58809;47.984;7.964;2022-11-20T14:50:14;96685.75;;;7.90;72.34
43701;BME280;58809;47.984;7.964;2022-11-20T14:53:23;96686.56;;;7.90;71.79
43701;BME280;58809;47.984;7.964;2022-11-20T14:56:25;96684.00;;;7.82;71.89
43701;BME280;58809;47.984;7.964;2022-11-20T14:59:29;96678.09;;;7.80;72.75
43701;BME280;58809;47.984;7.964;2022-11-20T15:02:31;96677.78;;;7.75;73.41
43701;BME280;58809;47.984;7.964;2022-11-20T15:05:47;96673.84;;;7.71;73.62
43701;BME280;58809;47.984;7.964;2022-11-20T15:08:53;96663.31;;;7.48;73.81
43701;BME280;58809;47.984;7.964;2022-11-20T15:12:00;96673.88;;;7.40;74.12
43701;BME280;58809;47.984;7.964;2022-11-20T15:15:03;96675.38;;;7.42;74.40
43701;BME280;58809;47.984;7.964;2022-11-20T15:18:12;96680.97;;;7.39;74.16
43701;BME280;58809;47.984;7.964;2022-11-20T15:21:17;96675.38;;;7.42;74.54
43701;BME280;58809;47.984;7.964;2022-11-20T15:24:19;96667.19;;;7.37;74.66
43701;BME280;58809;47.984;7.964;2022-11-20T15:27:22;96665.72;;;7.35;74.50
43701;BME280;58809;47.984;7.964;2022-11-20T15:30:24;96668.38;;;7.26;75.36
43701;BME280;58809;47.984;7.964;2022-11-20T15:33:26;96660.00;;;7.23;75.15
43701;BME280;58809;47.984;7.964;2022-11-20T15:36:28;96670.53;;;7.23;75.56
43701;BME280;58809;47.984;7.964;2022-11-20T15:39:29;96659.03;;;7.24;75.55
43701;BME280;58809;47.984;7.964;2022-11-20T15:42:31;96654.41;;;7.26;76.54
43701;BME280;58809;47.984;7.964;2022-11-20T15:45:51;96639.59;;;7.25;77.16
43701;BME280;58809;47.984;7.964;2022-11-20T15:48:55;96641.28;;;7.18;76.39
43701;BME280;58809;47.984;7.964;2022-11-20T15:51:57;96640.16;;;7.12;75.91
43701;BME280;58809;47.984;7.964;2022-11-20T15:54:59;96629.19;;;7.08;75.22
43701;BME280;58809;47.984;7.964;2022-11-20T15:58:07;96621.28;;;7.08;75.71
43701;BME280;58809;47.984;7.964;2022-11-20T16:01:13;96638.56;;;7.11;76.00
43701;BME280;58809;47.984;7.964;2022-11-20T16:04:16;96638.25;;;7.06;75.57
43701;BME280;58809;47.984;7.964;2022-11-20T16:07:18;96626.78;;;6.99;75.63
43701;BME280;58809;47.984;7.964;2022-11-20T16:10:19;96643.72;;;6.96;75.17
43701;BME280;58809;47.984;7.964;2022-11-20T16:13:21;96643.72;;;6.96;74.79
43701;BME280;58809;47.984;7.964;2022-11-20T16:16:41;96648.78;;;6.98;74.51
43701;BME280;58809;47.984;7.964;2022-11-20T16:19:45;96653.06;;;6.99;74.44
43701;BME280;58809;47.984;7.964;2022-11-20T16:22:46;96652.25;;;6.98;73.85
43701;BME280;58809;47.984;7.964;2022-11-20T16:26:09;96660.81;;;7.00;73.08
43701;BME280;58809;47.984;7.964;2022-11-20T16:29:11;96662.09;;;7.04;73.16
43701;BME280;58809;47.984;7.964;2022-11-20T16:32:12;96669.34;;;7.02;72.73
43701;BME280;58809;47.984;7.964;2022-11-20T16:35:14;96658.16;;;7.00;72.17
43701;BME280;58809;47.984;7.964;2022-11-20T16:38:16;96658.47;;;7.05;70.92
43701;BME280;58809;47.984;7.964;2022-11-20T16:41:17;96649.41;;;7.08;71.77
43701;BME280;58809;47.984;7.964;2022-11-20T16:44:19;96652.03;;;7.08;71.79
43701;BME280;58809;47.984;7.964;2022-11-20T16:47:20;96640.41;;;7.02;71.43
43701;BME280;58809;47.984;7.964;2022-11-20T16:50:22;96638.09;;;6.99;71.06
43701;BME280;58809;47.984;7.964;2022-11-20T16:53:23;96651.91;;;7.01;71.09
43701;BME280;58809;47.984;7.964;2022-11-20T16:56:26;96644.53;;;6.97;71.54
43701;BME280;58809;47.984;7.964;2022-11-20T16:59:27;96642.06;;;6.95;71.52
43701;BME280;58809;47.984;7.964;2022-11-20T17:02:29;96637.63;;;6.96;71.21
43701;BME280;58809;47.984;7.964;2022-11-20T17:05:31;96640.09;;;6.97;71.31
43701;BME280;58809;47.984;7.964;2022-11-20T17:08:33;96627.28;;;6.94;71.23
43701;BME280;58809;47.984;7.964;2022-11-20T17:11:35;96642.41;;;6.92;72.03
43701;BME280;58809;47.984;7.964;2022-11-20T17:14:37;96634.69;;;6.90;72.16
43701;BME280;58809;47.984;7.964;2022-11-20T17:17:39;96646.06;;;6.91;72.44
43701;BME280;58809;47.984;7.964;2022-11-20T17:20:40;96640.78;;;6.91;72.43
43701;BME280;58809;47.984;7.964;2022-11-20T17:23:43;96648.50;;;6.92;72.75
43701;BME280;58809;47.984;7.964;2022-11-20T17:26:48;96651.63;;;6.96;73.50
43701;BME280;58809;47.984;7.964;2022-11-20T17:29:56;96644.38;;;6.98;73.22
43701;BME280;58809;47.984;7.964;2022-11-20T17:33:12;96633.00;;;6.98;73.31
43701;BME280;58809;47.984;7.964;2022-11-20T17:36:32;96635.63;;;6.98;72.23
43701;BME280;58809;47.984;7.964;2022-11-20T17:39:49;96646.53;;;6.94;72.40
43701;BME280;58809;47.984;7.964;2022-11-20T17:42:55;96649.00;;;6.96;70.73
43701;BME280;58809;47.984;7.964;2022-11-20T17:49:19;96645.34;;;6.97;69.62
43701;BME280;58809;47.984;7.964;2022-11-20T17:52:25;96647.16;;;6.97;69.90